createdAt,value
2024-03-05T00:01:06.526Z,10.50
2024-03-05T00:04:09.369Z,11.12
2024-03-05T00:07:11.717Z,10.38
2024-03-05T00:10:14.805Z,10.80
2024-03-05T00:13:18.793Z,11.23
2024-03-05T00:16:21.837Z,10.82
2024-03-05T00:19:26.991Z,9.75
2024-03-05T00:22:29.752Z,10.60
2024-03-05T00:25:32.747Z,11.00
2024-03-05T00:28:35.866Z,10.90
2024-03-05T00:31:41.235Z,11.25
2024-03-05T00:34:44.051Z,11.25
2024-03-05T00:37:46.438Z,10.93
2024-03-05T00:40:49.811Z,11.80
2024-03-05T00:43:53.347Z,12.43
2024-03-05T00:46:56.289Z,12.43
2024-03-05T00:50:00.385Z,12.02
2024-03-05T00:53:03.170Z,12.02
2024-03-05T00:56:07.488Z,12.00
2024-03-05T00:59:10.238Z,11.27
2024-03-05T01:02:12.726Z,11.40
2024-03-05T01:05:15.607Z,11.57
2024-03-05T01:08:17.970Z,10.52
2024-03-05T01:11:20.834Z,10.95
2024-03-05T01:14:23.652Z,10.63
2024-03-05T01:17:28.775Z,11.27
2024-03-05T01:20:31.250Z,11.10
2024-03-05T01:23:34.538Z,11.07
2024-03-05T01:26:38.933Z,10.45
2024-03-05T01:29:42.996Z,10.32
2024-03-05T01:32:45.810Z,11.18
2024-03-05T01:35:49.606Z,9.68
2024-03-05T01:38:53.096Z,10.20
2024-03-05T01:41:57.303Z,9.95
2024-03-05T01:45:00.102Z,10.45
2024-03-05T01:48:03.038Z,10.48
2024-03-05T01:51:06.500Z,10.73
2024-03-05T01:54:09.378Z,10.73
2024-03-05T01:57:12.076Z,10.43
2024-03-05T02:00:21.916Z,10.20
2024-03-05T02:03:24.868Z,11.48
2024-03-05T02:06:28.349Z,10.60
2024-03-05T02:09:37.496Z,10.25
2024-03-05T02:12:42.257Z,9.95
2024-03-05T02:15:45.167Z,10.57
2024-03-05T02:18:47.856Z,9.15
2024-03-05T02:22:04.634Z,8.65
2024-03-05T02:25:07.672Z,10.15
2024-03-05T02:28:11.819Z,8.30
2024-03-05T02:31:14.692Z,9.77
2024-03-05T02:34:17.650Z,9.00
2024-03-05T02:37:20.417Z,8.93
2024-03-05T02:40:23.347Z,9.75
2024-03-05T02:43:25.776Z,10.13
2024-03-05T02:46:28.517Z,9.38
2024-03-05T02:49:30.926Z,8.90
2024-03-05T02:52:33.667Z,8.95
2024-03-05T02:55:39.377Z,9.10
2024-03-05T02:58:43.443Z,9.60
2024-03-05T03:01:49.671Z,9.27
2024-03-05T03:04:52.903Z,9.57
2024-03-05T03:07:55.509Z,9.27
2024-03-05T03:10:58.633Z,9.52
2024-03-05T03:14:02.007Z,10.10
2024-03-05T03:17:05.423Z,10.95
2024-03-05T03:20:09.448Z,9.23
2024-03-05T03:23:12.199Z,8.50
2024-03-05T03:26:14.723Z,9.13
2024-03-05T03:29:17.632Z,9.18
2024-03-05T03:32:23.417Z,9.45
2024-03-05T03:35:26.255Z,8.48
2024-03-05T03:38:28.643Z,8.48
2024-03-05T03:41:31.438Z,8.80
2024-03-05T03:44:35.970Z,9.45
2024-03-05T03:47:38.718Z,8.52
2024-03-05T03:50:41.298Z,9.35
2024-03-05T03:53:44.960Z,9.35
2024-03-05T03:56:47.593Z,8.85
2024-03-05T03:59:50.429Z,9.70
2024-03-05T04:02:53.052Z,10.15
2024-03-05T04:05:55.860Z,9.65
2024-03-05T04:08:58.450Z,10.32
2024-03-05T04:12:02.929Z,10.38
2024-03-05T04:15:06.635Z,10.40
2024-03-05T04:18:09.475Z,10.30
2024-03-05T04:21:12.033Z,8.82
2024-03-05T04:24:15.594Z,9.75
2024-03-05T04:27:19.770Z,9.38
2024-03-05T04:30:24.582Z,9.48
2024-03-05T04:33:29.533Z,9.95
2024-03-05T04:36:35.629Z,10.40
2024-03-05T04:39:43.087Z,9.45
2024-03-05T04:42:46.513Z,9.23
2024-03-05T04:45:51.213Z,9.88
2024-03-05T04:48:53.681Z,11.07
2024-03-05T04:51:55.881Z,10.93
2024-03-05T04:54:58.366Z,10.05
2024-03-05T04:58:00.563Z,10.15
2024-03-05T05:01:03.635Z,9.98
2024-03-05T05:04:06.774Z,9.98
2024-03-05T05:07:09.343Z,10.82
2024-03-05T05:10:11.929Z,9.65
2024-03-05T05:13:14.743Z,10.23
2024-03-05T05:16:17.309Z,8.80
2024-03-05T05:19:19.901Z,9.65
2024-03-05T05:22:22.224Z,10.15
2024-03-05T05:25:25.022Z,11.43
2024-03-05T05:28:28.232Z,10.15
2024-03-05T05:31:30.899Z,11.30
2024-03-05T05:34:33.698Z,10.25
2024-03-05T05:37:38.167Z,10.07
2024-03-05T05:40:41.140Z,10.98
2024-03-05T05:43:44.693Z,12.02
2024-03-05T05:46:47.412Z,11.68
2024-03-05T05:49:50.233Z,10.30
2024-03-05T05:52:54.522Z,10.68
2024-03-05T05:55:57.151Z,10.60
2024-03-05T05:58:59.545Z,10.68
2024-03-05T06:02:02.301Z,9.80
2024-03-05T06:05:10.010Z,11.20
2024-03-05T06:08:12.850Z,11.50
2024-03-05T06:11:15.895Z,10.77
2024-03-05T06:14:18.215Z,10.93
2024-03-05T06:17:21.013Z,11.95
2024-03-05T06:20:23.918Z,12.70
2024-03-05T06:23:31.579Z,12.15
2024-03-05T06:26:45.570Z,12.20
2024-03-05T06:29:48.572Z,12.02
2024-03-05T06:33:00.540Z,11.50
2024-03-05T06:36:07.800Z,13.20
2024-03-05T06:39:22.195Z,11.82
2024-03-05T06:42:25.410Z,11.80
2024-03-05T06:45:29.244Z,12.32
2024-03-05T06:48:34.449Z,13.30
2024-03-05T06:51:43.357Z,12.98
2024-03-05T06:55:04.424Z,13.30
2024-03-05T06:58:20.424Z,13.30
2024-03-05T07:01:34.453Z,13.45
2024-03-05T07:04:36.780Z,13.70
2024-03-05T07:07:44.091Z,13.18
2024-03-05T07:10:50.739Z,13.80
2024-03-05T07:13:54.164Z,13.68
2024-03-05T07:16:56.942Z,13.40
2024-03-05T07:19:59.535Z,13.40
2024-03-05T07:23:03.815Z,12.70
2024-03-05T07:26:08.011Z,13.23
2024-03-05T07:29:12.911Z,13.02
2024-03-05T07:32:27.229Z,13.13
2024-03-05T07:35:31.119Z,14.50
2024-03-05T07:38:43.000Z,14.57
2024-03-05T07:41:58.554Z,14.52
2024-03-05T07:45:09.024Z,14.73
2024-03-05T07:48:16.054Z,14.87
2024-03-05T07:51:44.325Z,15.77
2024-03-05T12:18:32.939Z,5.90
2024-03-05T12:21:40.122Z,6.87
2024-03-05T12:24:42.751Z,6.40
2024-03-05T12:27:49.190Z,7.53
2024-03-05T12:30:52.337Z,7.82
2024-03-05T12:33:55.240Z,9.07
2024-03-05T12:36:57.817Z,9.80
2024-03-05T12:40:04.611Z,9.85
2024-03-05T12:43:08.214Z,9.05
2024-03-05T12:46:10.786Z,9.63
2024-03-05T12:49:16.086Z,9.10
2024-03-05T12:52:20.887Z,9.18
2024-03-05T12:55:23.321Z,6.95
2024-03-05T12:58:28.163Z,7.28
2024-03-05T13:01:30.932Z,8.35
2024-03-05T13:04:35.100Z,8.30
2024-03-05T13:07:38.438Z,8.85
2024-03-05T13:10:41.076Z,10.35
2024-03-05T13:13:43.388Z,9.68
2024-03-05T13:16:46.514Z,9.07
2024-03-05T13:19:48.896Z,9.43
2024-03-05T13:22:54.880Z,9.75
2024-03-05T13:25:59.082Z,8.60
2024-03-05T13:29:02.773Z,8.05
2024-03-05T13:32:06.166Z,8.57
2024-03-05T13:35:09.690Z,11.35
2024-03-05T13:38:12.119Z,11.73
2024-03-05T13:41:15.737Z,12.57
2024-03-05T13:44:18.602Z,12.68
2024-03-05T13:47:22.766Z,13.40
2024-03-05T13:50:25.654Z,12.35
2024-03-05T13:53:28.339Z,12.73
2024-03-05T13:56:32.363Z,12.45
2024-03-05T13:59:34.968Z,12.23
2024-03-05T14:02:37.272Z,11.43
2024-03-05T14:05:39.839Z,12.70
2024-03-05T14:08:44.587Z,12.32
2024-03-05T14:11:50.283Z,12.68
2024-03-05T14:14:52.739Z,13.25
2024-03-05T14:17:55.365Z,12.27
2024-03-05T14:20:57.885Z,13.15
2024-03-05T14:24:00.693Z,12.63
2024-03-05T14:27:03.054Z,12.93
2024-03-05T14:30:08.893Z,10.77
2024-03-05T14:33:11.994Z,11.00
2024-03-05T14:36:15.422Z,12.50
2024-03-05T14:39:18.127Z,12.95
2024-03-05T14:42:20.937Z,14.63
2024-03-05T14:45:23.762Z,12.82
2024-03-05T14:48:26.458Z,13.57
2024-03-05T14:51:30.005Z,12.85
2024-03-05T14:54:32.639Z,14.02
2024-03-05T14:57:35.078Z,13.40
2024-03-05T15:00:38.008Z,12.95
2024-03-05T15:03:40.641Z,12.60
2024-03-05T15:06:43.126Z,11.98
2024-03-05T15:09:45.387Z,11.07
2024-03-05T15:12:50.250Z,12.32
2024-03-05T15:15:52.413Z,11.90
2024-03-05T15:18:54.883Z,13.55
2024-03-05T15:21:59.904Z,12.50
2024-03-05T15:25:08.323Z,11.73
2024-03-05T15:28:10.616Z,12.88
2024-03-05T15:31:13.195Z,12.95
2024-03-05T15:34:15.816Z,14.32
2024-03-05T15:37:18.410Z,12.75
2024-03-05T15:40:30.076Z,14.75
2024-03-05T15:43:37.404Z,11.43
2024-03-05T15:46:41.421Z,13.40
2024-03-05T15:49:44.718Z,12.85
2024-03-05T15:52:55.263Z,11.82
2024-03-05T15:56:13.638Z,13.75
2024-03-05T15:59:34.987Z,13.80
2024-03-05T16:02:37.899Z,14.70
2024-03-05T16:05:52.090Z,14.10
2024-03-05T16:09:04.525Z,14.50
2024-03-05T16:12:12.262Z,15.48
2024-03-05T16:15:16.830Z,14.60
2024-03-05T16:18:20.372Z,13.20
2024-03-05T16:21:25.279Z,14.90
2024-03-05T16:24:29.360Z,14.13
2024-03-05T16:27:32.066Z,13.65
2024-03-05T16:30:35.582Z,13.38
2024-03-05T16:33:38.061Z,12.77
2024-03-05T16:36:41.242Z,13.95
2024-03-05T16:39:44.758Z,13.93
2024-03-05T16:42:49.675Z,13.10
2024-03-05T16:45:53.571Z,12.80
2024-03-05T16:48:56.516Z,13.40
2024-03-05T16:51:59.419Z,12.95
2024-03-05T16:55:02.645Z,13.13
2024-03-05T16:58:11.419Z,12.07
2024-03-05T17:01:18.661Z,12.82
2024-03-05T17:04:24.974Z,12.82
2024-03-05T17:07:28.833Z,13.25
2024-03-05T17:10:32.091Z,12.55
2024-03-05T17:13:38.307Z,12.45
2024-03-05T17:16:46.128Z,13.60
2024-03-05T17:19:49.800Z,15.00
2024-03-05T17:22:56.553Z,14.40
2024-03-05T17:26:02.539Z,14.13
2024-03-05T17:29:08.549Z,12.50
2024-03-05T17:32:11.933Z,14.18
2024-03-05T17:35:15.890Z,14.40
2024-03-05T17:38:20.005Z,14.45
2024-03-05T17:41:23.544Z,15.30
2024-03-05T17:44:26.842Z,14.40
2024-03-05T17:47:31.018Z,14.77
2024-03-05T17:50:36.398Z,16.83
2024-03-05T17:53:39.614Z,16.20
2024-03-05T17:56:44.773Z,16.00
2024-03-05T17:59:48.115Z,17.48
2024-03-05T18:02:53.494Z,14.52
2024-03-05T18:05:56.614Z,15.07
2024-03-05T18:08:59.833Z,16.60
2024-03-05T18:12:05.661Z,16.75
2024-03-05T18:15:09.153Z,17.52
2024-03-05T18:18:16.239Z,18.23
2024-03-05T18:21:20.043Z,18.33
2024-03-05T18:24:23.096Z,17.25
2024-03-05T18:27:27.225Z,16.60
2024-03-05T18:30:32.672Z,18.00
2024-03-05T18:33:35.641Z,17.70
2024-03-05T18:36:41.259Z,17.55
2024-03-05T18:39:43.989Z,18.65
2024-03-05T18:42:51.097Z,17.10
2024-03-05T18:45:54.980Z,17.65
2024-03-05T18:48:58.862Z,19.40
2024-03-05T18:52:04.674Z,22.02
2024-03-05T18:55:10.681Z,18.48
2024-03-05T18:58:13.470Z,19.00
2024-03-05T19:01:16.997Z,16.92
2024-03-05T19:04:23.873Z,17.60
2024-03-05T19:07:30.053Z,19.17
2024-03-05T19:10:34.765Z,17.37
2024-03-05T19:13:38.197Z,17.48
2024-03-05T19:16:41.378Z,18.05
2024-03-05T19:19:48.639Z,17.25
2024-03-05T19:22:53.199Z,18.10
2024-03-05T19:25:57.614Z,16.35
2024-03-05T19:29:01.073Z,16.60
2024-03-05T19:32:06.467Z,16.35
2024-03-05T19:35:15.333Z,17.48
2024-03-05T19:38:18.597Z,16.58
2024-03-05T19:41:21.291Z,16.55
2024-03-05T19:44:24.728Z,15.82
2024-03-05T19:47:29.263Z,16.40
2024-03-05T19:50:34.392Z,16.02
2024-03-05T19:53:37.260Z,16.48
2024-03-05T19:56:42.990Z,14.63
2024-03-05T19:59:45.999Z,15.02
2024-03-05T20:02:49.347Z,13.48
2024-03-05T20:05:52.758Z,14.05
2024-03-05T20:08:55.829Z,13.80
2024-03-05T20:11:59.523Z,13.20
2024-03-05T20:15:09.888Z,13.07
2024-03-05T20:18:14.357Z,13.35
2024-03-05T20:21:17.243Z,13.32
2024-03-05T20:24:20.329Z,12.50
2024-03-05T20:27:23.316Z,13.62
2024-03-05T20:30:29.735Z,13.15
2024-03-05T20:33:38.989Z,14.90
2024-03-05T20:36:44.586Z,14.52
2024-03-05T20:39:53.290Z,13.27
2024-03-05T20:42:56.981Z,13.62
